Flight Track Log - Related Links

Times and Time Zones

All times are in EDT time to prevent confusion due to time zone crossing. See the EGF2841 flight status page for this flight to view local times or setup timezone preferences in your user account.

Time Position Orientation Groundspeed Altitude Reporting Facility
EDT Latitude Longitude Course Direction KTS MPH feet Rate Location/Type
Sat 10:35:40 AM 32.9000 -97.0500 295° West 131 151 1,200  Level Dallas / Fort Worth TRACON
Sat 10:35:58 AM 32.9167 -97.0500 360° North 171 197 2,200 3,154 Climbing Dallas / Fort Worth TRACON
Sat 10:36:58 AM 32.9833 -97.0500 360° North 197 227 5,300 2,900 Climbing Dallas / Fort Worth TRACON
Sat 10:37:00 AM 32.7570 -97.1264 220° Southwest  Level FlightAware Approximate
Sat 10:37:58 AM 33.0000 -97.1167 287° West 251 289 8,000  Level Dallas / Fort Worth TRACON
Sat 10:38:00 AM 32.7653 -97.2253 281° West  Level FlightAware Approximate
Sat 10:39:00 AM 32.8046 -97.3186 298° West  Level FlightAware Approximate
Sat 10:40:00 AM 32.8447 -97.4118 296° West  Level FlightAware Approximate
Sat 10:40:03 AM 32.9858 -97.2944 265° West 267 307 12,500  Level Fort Worth Center
Sat 10:41:00 AM 32.8826 -97.5063 295° West  Level FlightAware Approximate
Sat 10:41:03 AM 32.9836 -97.3861 268° West 289 333 13,900  Level Fort Worth Center
Sat 10:42:03 AM 32.9817 -97.5025 269° West 316 364 15,600 1,550 Climbing Fort Worth Center
Sat 10:43:03 AM 32.9836 -97.6017 271° West 326 375 17,000 1,550 Climbing Fort Worth Center
Sat 10:44:03 AM 32.9792 -97.7231 268° West 331 381 18,700 1,550 Climbing Fort Worth Center
Sat 10:45:03 AM 32.9956 -97.8344 280° West 331 381 20,100 1,450 Climbing Fort Worth Center
Sat 10:46:03 AM 33.0139 -97.9461 281° West 336 387 21,600 1,400 Climbing Fort Worth Center
Sat 10:47:03 AM 33.0300 -98.0553 280° West 336 387 22,900 1,400 Climbing Fort Worth Center
Sat 10:48:03 AM 33.0481 -98.1717 281° West 341 392 24,400 1,400 Climbing Fort Worth Center
Sat 10:49:03 AM 33.0661 -98.2811 281° West 347 399 25,700 1,300 Climbing Fort Worth Center
Sat 10:50:03 AM 33.0842 -98.3978 280° West 352 405 27,000 1,250 Climbing Fort Worth Center
Sat 10:51:03 AM 33.1019 -98.5094 281° West 352 405 28,200 1,050 Climbing Fort Worth Center
Sat 10:52:03 AM 33.1136 -98.6114 278° West 352 405 29,100 1,100 Climbing Fort Worth Center
Sat 10:53:03 AM 33.1353 -98.7406 281° West 352 405 30,400 1,100 Climbing Fort Worth Center
Sat 10:54:03 AM 33.1489 -98.8350 280° West 358 412 31,300 1,050 Climbing Fort Worth Center
Sat 10:55:03 AM 33.1700 -98.9794 280° West 373 429 32,500 1,100 Climbing Fort Worth Center
Sat 10:56:03 AM 33.1894 -99.1039 281° West 373 429 33,500 1,000 Climbing Fort Worth Center
Sat 10:57:03 AM 33.2169 -99.2211 286° West 373 429 34,500 1,100 Climbing Fort Worth Center
Sat 10:58:03 AM 33.2592 -99.3314 295° West 368 423 35,700 750 Climbing Fort Worth Center
Sat 10:59:03 AM 33.3011 -99.4392 295° West 368 423 36,000 150 Climbing Fort Worth Center
Sat 11:00:03 AM 33.3433 -99.5419 296° West 357 411 36,000  Level Fort Worth Center
Sat 11:01:03 AM 33.3853 -99.6500 295° West 357 411 36,000  Level Fort Worth Center
Sat 11:02:03 AM 33.4250 -99.7581 294° West 357 411 36,000  Level Fort Worth Center
Sat 11:03:03 AM 33.4647 -99.8636 294° West 357 411 36,000  Level Fort Worth Center
Sat 11:04:03 AM 33.5064 -99.9694 295° West 357 411 36,000  Level Fort Worth Center
Sat 11:05:03 AM 33.5458 -100.0803 293° West 357 411 36,000  Level Fort Worth Center
Sat 11:06:03 AM 33.5853 -100.1861 294° West 357 411 36,000  Level Fort Worth Center
Sat 11:07:05 AM 33.6267 -100.2947 295° West 357 411 36,000  Level Fort Worth Center
Sat 11:08:15 AM 33.6758 -100.4211 295° West 357 411 36,000  Level Fort Worth Center
Sat 11:09:15 AM 33.7150 -100.5297 293° West 362 417 36,000  Level Fort Worth Center
Sat 11:10:15 AM 33.7561 -100.6411 294° West 362 417 36,000  Level Fort Worth Center
Sat 11:11:15 AM 33.7950 -100.7475 294° West 362 417 36,000  Level Fort Worth Center
Sat 11:12:15 AM 33.8358 -100.8592 294° West 362 417 36,000  Level Fort Worth Center
Sat 11:13:15 AM 33.8767 -100.9683 294° West 362 417 36,000  Level Fort Worth Center
Sat 11:14:15 AM 33.9192 -101.0778 295° West 367 422 36,000  Level Fort Worth Center
Sat 11:15:15 AM 33.9519 -101.1767 292° West 360 414 36,000  Level Fort Worth Center
Sat 11:16:15 AM 33.9983 -101.2964 295° West 360 414 36,000  Level Fort Worth Center
Sat 11:17:15 AM 34.0367 -101.3986 294° West 360 414 36,000  Level Fort Worth Center
Sat 11:18:15 AM 34.0786 -101.5233 292° West 365 420 36,000  Level Fort Worth Center
Sat 11:19:15 AM 34.1153 -101.6178 295° West 358 412 36,000  Level Fort Worth Center
Sat 11:20:15 AM 34.1589 -101.7453 292° West 358 412 36,000  Level Fort Worth Center
Sat 11:21:15 AM 34.1972 -101.8428 295° West 363 418 36,000  Level Fort Worth Center
Sat 11:23:00 AM 34.2639 -102.0361 293° West 363 418 36,000  Level Albuquerque Center
Sat 11:24:02 AM 34.3042 -102.1483 294° West 364 419 36,000  Level Albuquerque Center
Sat 11:25:04 AM 34.3439 -102.2614 293° West 364 419 36,000  Level Albuquerque Center
Sat 11:26:06 AM 34.3917 -102.3964 293° West 363 418 36,000  Level Albuquerque Center
Sat 11:27:08 AM 34.4317 -102.5092 293° West 364 419 36,000  Level Albuquerque Center
Sat 11:28:10 AM 34.4711 -102.6217 293° West 363 418 36,000  Level Albuquerque Center
Sat 11:29:11 AM 34.5097 -102.7328 293° West 361 415 36,000  Level Albuquerque Center
Sat 11:30:13 AM 34.5506 -102.8469 294° West 365 420 36,000  Level Albuquerque Center
Sat 11:31:15 AM 34.5892 -102.9603 293° West 362 417 36,000  Level Albuquerque Center
Sat 11:32:17 AM 34.6339 -103.0942 292° West 363 418 36,000  Level Albuquerque Center
Sat 11:33:19 AM 34.6756 -103.2097 294° West 368 423 36,000  Level Albuquerque Center
Sat 11:34:21 AM 34.7133 -103.3236 292° West 363 418 36,000  Level Albuquerque Center
Sat 11:35:22 AM 34.7528 -103.4397 292° West 366 421 36,000  Level Albuquerque Center
Sat 11:36:24 AM 34.7931 -103.5558 293° West 369 425 36,000  Level Albuquerque Center
Sat 11:37:26 AM 34.8322 -103.6719 292° West 368 423 36,000  Level Albuquerque Center
Sat 11:38:28 AM 34.8708 -103.7889 292° West 368 423 36,000  Level Albuquerque Center
Sat 11:39:30 AM 34.9097 -103.9039 292° West 364 419 36,000  Level Albuquerque Center
Sat 11:40:31 AM 34.9494 -104.0214 292° West 368 423 36,000  Level Albuquerque Center
Sat 11:41:33 AM 34.9878 -104.1381 292° West 367 422 36,000  Level Albuquerque Center
Sat 11:42:35 AM 35.0267 -104.2567 292° West 368 423 36,000 -484 Level Albuquerque Center
Sat 11:43:37 AM 35.0731 -104.3953 292° West 370 426 35,000 -1,122 Descending Albuquerque Center
Sat 11:44:38 AM 35.1103 -104.5003 293° West 373 429 33,700 -1,512 Descending Albuquerque Center
Sat 11:45:40 AM 35.1519 -104.6350 291° West 374 430 31,900 -1,742 Descending Albuquerque Center
Sat 11:46:42 AM 35.1925 -104.7561 292° West 378 435 30,100 -1,902 Descending Albuquerque Center
Sat 11:47:43 AM 35.2322 -104.8808 291° West 386 444 28,000 -2,146 Descending Albuquerque Center
Sat 11:48:45 AM 35.2739 -105.0122 291° West 402 463 25,700 -2,323 Descending Albuquerque Center
Sat 11:49:47 AM 35.3167 -105.1431 292° West 408 470 23,200 -2,323 Descending Albuquerque Center
Sat 11:50:49 AM 35.3578 -105.2694 292° West 401 461 20,900 -2,244 Descending Albuquerque Center
Sat 11:51:50 AM 35.3903 -105.3947 288° West 386 444 18,600 -2,146 Descending Albuquerque Center
Sat 11:52:52 AM 35.4078 -105.5183 280° West 372 428 16,500 -2,081 Descending Albuquerque Center
Sat 11:53:54 AM 35.4283 -105.6408 282° West 366 421 14,300 -1,220 Descending Albuquerque Center
Sat 11:54:55 AM 35.4478 -105.7783 280° West 356 410 14,000 -195 Descending Albuquerque Center
Sat 11:55:57 AM 35.4711 -105.8794 286° West 325 374 13,900 -829 Descending Albuquerque Center
Sat 11:56:58 AM 35.5078 -105.9686 297° West 300 345 12,300 -976 Descending Albuquerque Center
Sat 11:58:00 AM 35.5628 -106.0086 329° Northwest 278 320 11,900 -629 Descending Albuquerque Center
Sat 11:59:02 AM 35.6194 -105.9794 23° Northeast 237 273 11,000 -1,113 Descending Albuquerque Center
Sat 12:00:04 PM 35.6683 -105.9564 21° North 206 237 9,600 -1,268 Descending Albuquerque Center
Sat 12:01:05 PM 35.6986 -106.0031 309° West 193 222 8,400 -927 Descending Albuquerque Center
Sat 12:02:07 PM 35.6728 -106.0431 232° Southwest 166 191 7,700 -823 Descending Albuquerque Center
Sat 12:03:09 PM 35.6403 -106.0708 215° Southwest 151 174 6,700 -968 Descending Albuquerque Center

Login

Don't have an account? Register now (free) for customized features, flight alerts, and more!